sensor_id;sensor_type;location;lat;lon;timestamp;P1;durP1;ratioP1;P2;durP2;ratioP2
35959;SDS011;22043;50.970;7.192;2022-08-25T00:00:16;3.40;;;1.50;;
35959;SDS011;22043;50.970;7.192;2022-08-25T00:02:44;3.83;;;1.55;;
35959;SDS011;22043;50.970;7.192;2022-08-25T00:05:10;3.20;;;1.65;;
35959;SDS011;22043;50.970;7.192;2022-08-25T00:07:35;3.13;;;1.35;;
35959;SDS011;22043;50.970;7.192;2022-08-25T00:10:01;4.43;;;1.63;;
35959;SDS011;22043;50.970;7.192;2022-08-25T00:12:28;3.65;;;1.50;;
35959;SDS011;22043;50.970;7.192;2022-08-25T00:14:54;4.32;;;1.70;;
35959;SDS011;22043;50.970;7.192;2022-08-25T00:17:19;3.83;;;1.60;;
35959;SDS011;22043;50.970;7.192;2022-08-25T00:19:45;2.67;;;1.20;;
35959;SDS011;22043;50.970;7.192;2022-08-25T00:22:11;3.30;;;1.20;;
35959;SDS011;22043;50.970;7.192;2022-08-25T00:24:36;5.57;;;1.30;;
35959;SDS011;22043;50.970;7.192;2022-08-25T00:27:02;2.88;;;1.38;;
35959;SDS011;22043;50.970;7.192;2022-08-25T00:29:29;3.72;;;1.42;;
35959;SDS011;22043;50.970;7.192;2022-08-25T00:31:55;3.55;;;1.40;;
35959;SDS011;22043;50.970;7.192;2022-08-25T00:34:23;5.85;;;1.50;;
35959;SDS011;22043;50.970;7.192;2022-08-25T00:36:52;2.70;;;1.45;;
35959;SDS011;22043;50.970;7.192;2022-08-25T00:39:18;4.13;;;1.60;;
35959;SDS011;22043;50.970;7.192;2022-08-25T00:41:45;3.25;;;1.50;;
35959;SDS011;22043;50.970;7.192;2022-08-25T00:44:13;3.30;;;1.52;;
35959;SDS011;22043;50.970;7.192;2022-08-25T00:46:47;3.20;;;1.52;;
35959;SDS011;22043;50.970;7.192;2022-08-25T00:49:36;3.85;;;1.65;;
35959;SDS011;22043;50.970;7.192;2022-08-25T00:52:12;5.13;;;2.22;;
35959;SDS011;22043;50.970;7.192;2022-08-25T00:57:14;4.25;;;1.83;;
35959;SDS011;22043;50.970;7.192;2022-08-25T00:59:42;5.50;;;1.65;;
35959;SDS011;22043;50.970;7.192;2022-08-25T01:02:09;3.88;;;2.00;;
35959;SDS011;22043;50.970;7.192;2022-08-25T01:04:34;4.63;;;2.13;;
35959;SDS011;22043;50.970;7.192;2022-08-25T01:07:01;5.53;;;2.13;;
35959;SDS011;22043;50.970;7.192;2022-08-25T01:09:29;9.52;;;2.30;;
35959;SDS011;22043;50.970;7.192;2022-08-25T01:11:56;6.78;;;2.00;;
35959;SDS011;22043;50.970;7.192;2022-08-25T01:14:23;3.55;;;1.45;;
35959;SDS011;22043;50.970;7.192;2022-08-25T01:16:49;3.30;;;1.67;;
35959;SDS011;22043;50.970;7.192;2022-08-25T01:21:47;4.43;;;1.67;;
35959;SDS011;22043;50.970;7.192;2022-08-25T01:24:18;4.70;;;1.70;;
35959;SDS011;22043;50.970;7.192;2022-08-25T01:26:53;4.60;;;1.65;;
35959;SDS011;22043;50.970;7.192;2022-08-25T01:29:18;3.58;;;2.00;;
35959;SDS011;22043;50.970;7.192;2022-08-25T01:31:54;4.85;;;1.65;;
35959;SDS011;22043;50.970;7.192;2022-08-25T01:34:22;3.30;;;1.50;;
35959;SDS011;22043;50.970;7.192;2022-08-25T01:36:50;5.53;;;2.20;;
35959;SDS011;22043;50.970;7.192;2022-08-25T01:39:16;5.72;;;2.10;;
35959;SDS011;22043;50.970;7.192;2022-08-25T01:42:02;4.18;;;1.85;;
35959;SDS011;22043;50.970;7.192;2022-08-25T01:44:33;5.22;;;1.88;;
35959;SDS011;22043;50.970;7.192;2022-08-25T01:47:01;4.50;;;1.98;;
35959;SDS011;22043;50.970;7.192;2022-08-25T01:49:28;3.33;;;1.90;;
35959;SDS011;22043;50.970;7.192;2022-08-25T01:52:04;3.60;;;2.00;;
35959;SDS011;22043;50.970;7.192;2022-08-25T01:54:35;4.85;;;1.92;;
35959;SDS011;22043;50.970;7.192;2022-08-25T01:57:01;5.70;;;2.00;;
35959;SDS011;22043;50.970;7.192;2022-08-25T01:59:27;5.43;;;2.10;;
35959;SDS011;22043;50.970;7.192;2022-08-25T02:01:53;4.65;;;1.90;;
35959;SDS011;22043;50.970;7.192;2022-08-25T02:04:19;3.80;;;1.55;;
35959;SDS011;22043;50.970;7.192;2022-08-25T02:06:45;3.95;;;1.63;;
35959;SDS011;22043;50.970;7.192;2022-08-25T02:09:12;4.22;;;1.90;;
35959;SDS011;22043;50.970;7.192;2022-08-25T02:11:40;4.22;;;1.83;;
35959;SDS011;22043;50.970;7.192;2022-08-25T02:14:08;4.47;;;2.08;;
35959;SDS011;22043;50.970;7.192;2022-08-25T02:16:36;3.30;;;1.70;;
35959;SDS011;22043;50.970;7.192;2022-08-25T02:19:04;3.90;;;1.85;;
35959;SDS011;22043;50.970;7.192;2022-08-25T02:21:32;4.40;;;1.75;;
35959;SDS011;22043;50.970;7.192;2022-08-25T02:23:59;3.55;;;1.83;;
35959;SDS011;22043;50.970;7.192;2022-08-25T02:26:25;4.95;;;2.05;;
35959;SDS011;22043;50.970;7.192;2022-08-25T02:28:51;5.00;;;1.83;;
35959;SDS011;22043;50.970;7.192;2022-08-25T02:31:18;4.40;;;1.70;;
35959;SDS011;22043;50.970;7.192;2022-08-25T02:33:45;3.00;;;1.75;;
35959;SDS011;22043;50.970;7.192;2022-08-25T02:36:11;5.28;;;1.88;;
35959;SDS011;22043;50.970;7.192;2022-08-25T02:38:37;6.55;;;1.92;;
35959;SDS011;22043;50.970;7.192;2022-08-25T02:41:10;6.60;;;2.27;;
35959;SDS011;22043;50.970;7.192;2022-08-25T02:43:42;4.60;;;1.95;;
35959;SDS011;22043;50.970;7.192;2022-08-25T02:46:09;5.50;;;2.00;;
35959;SDS011;22043;50.970;7.192;2022-08-25T02:48:36;3.30;;;1.70;;
35959;SDS011;22043;50.970;7.192;2022-08-25T02:51:02;3.80;;;2.28;;
35959;SDS011;22043;50.970;7.192;2022-08-25T02:53:30;5.25;;;2.17;;
35959;SDS011;22043;50.970;7.192;2022-08-25T02:55:57;4.38;;;2.25;;
35959;SDS011;22043;50.970;7.192;2022-08-25T02:58:23;7.00;;;2.20;;
35959;SDS011;22043;50.970;7.192;2022-08-25T03:00:48;5.15;;;2.00;;
35959;SDS011;22043;50.970;7.192;2022-08-25T03:03:15;3.60;;;1.80;;
35959;SDS011;22043;50.970;7.192;2022-08-25T03:05:40;3.83;;;2.25;;
35959;SDS011;22043;50.970;7.192;2022-08-25T03:08:06;7.97;;;2.30;;
35959;SDS011;22043;50.970;7.192;2022-08-25T03:10:33;4.40;;;2.10;;
35959;SDS011;22043;50.970;7.192;2022-08-25T03:12:59;4.65;;;2.30;;
35959;SDS011;22043;50.970;7.192;2022-08-25T03:15:25;3.95;;;2.08;;
35959;SDS011;22043;50.970;7.192;2022-08-25T03:17:52;5.03;;;2.63;;
35959;SDS011;22043;50.970;7.192;2022-08-25T03:20:19;6.68;;;2.40;;
35959;SDS011;22043;50.970;7.192;2022-08-25T03:22:46;4.60;;;2.30;;
35959;SDS011;22043;50.970;7.192;2022-08-25T03:25:11;3.38;;;2.00;;
35959;SDS011;22043;50.970;7.192;2022-08-25T03:27:56;3.58;;;1.92;;
35959;SDS011;22043;50.970;7.192;2022-08-25T03:30:22;4.85;;;2.00;;
35959;SDS011;22043;50.970;7.192;2022-08-25T03:32:48;7.00;;;2.00;;
35959;SDS011;22043;50.970;7.192;2022-08-25T03:35:14;5.20;;;2.10;;
35959;SDS011;22043;50.970;7.192;2022-08-25T03:37:39;4.10;;;2.13;;
35959;SDS011;22043;50.970;7.192;2022-08-25T03:40:06;4.45;;;2.60;;
35959;SDS011;22043;50.970;7.192;2022-08-25T03:42:34;4.60;;;2.40;;
35959;SDS011;22043;50.970;7.192;2022-08-25T03:45:03;7.25;;;2.28;;
35959;SDS011;22043;50.970;7.192;2022-08-25T03:47:29;4.07;;;2.08;;
35959;SDS011;22043;50.970;7.192;2022-08-25T03:49:55;4.68;;;2.40;;
35959;SDS011;22043;50.970;7.192;2022-08-25T03:52:21;8.00;;;2.20;;
35959;SDS011;22043;50.970;7.192;2022-08-25T03:54:47;9.27;;;2.67;;
35959;SDS011;22043;50.970;7.192;2022-08-25T03:57:13;5.72;;;2.35;;
35959;SDS011;22043;50.970;7.192;2022-08-25T03:59:39;7.60;;;2.35;;
35959;SDS011;22043;50.970;7.192;2022-08-25T04:02:05;7.97;;;2.80;;
35959;SDS011;22043;50.970;7.192;2022-08-25T04:04:31;5.07;;;2.40;;
35959;SDS011;22043;50.970;7.192;2022-08-25T04:06:57;6.15;;;2.30;;
35959;SDS011;22043;50.970;7.192;2022-08-25T04:09:23;4.70;;;2.45;;
35959;SDS011;22043;50.970;7.192;2022-08-25T04:11:49;3.92;;;2.20;;
35959;SDS011;22043;50.970;7.192;2022-08-25T04:14:16;5.45;;;2.60;;
35959;SDS011;22043;50.970;7.192;2022-08-25T04:16:42;3.90;;;2.40;;
35959;SDS011;22043;50.970;7.192;2022-08-25T04:19:08;6.45;;;3.22;;
35959;SDS011;22043;50.970;7.192;2022-08-25T04:21:35;4.80;;;2.20;;
35959;SDS011;22043;50.970;7.192;2022-08-25T04:24:03;4.50;;;2.33;;
35959;SDS011;22043;50.970;7.192;2022-08-25T04:26:31;3.72;;;2.00;;
35959;SDS011;22043;50.970;7.192;2022-08-25T04:28:59;4.00;;;2.35;;
35959;SDS011;22043;50.970;7.192;2022-08-25T04:33:52;6.72;;;2.80;;
35959;SDS011;22043;50.970;7.192;2022-08-25T04:36:18;4.85;;;2.38;;
35959;SDS011;22043;50.970;7.192;2022-08-25T04:38:45;10.95;;;2.92;;
35959;SDS011;22043;50.970;7.192;2022-08-25T04:41:12;12.35;;;3.33;;
35959;SDS011;22043;50.970;7.192;2022-08-25T04:43:39;5.70;;;2.00;;
35959;SDS011;22043;50.970;7.192;2022-08-25T04:46:10;4.37;;;2.70;;
35959;SDS011;22043;50.970;7.192;2022-08-25T04:48:41;5.72;;;2.67;;
35959;SDS011;22043;50.970;7.192;2022-08-25T04:51:09;6.38;;;3.03;;
35959;SDS011;22043;50.970;7.192;2022-08-25T04:53:36;4.97;;;2.50;;
35959;SDS011;22043;50.970;7.192;2022-08-25T04:56:07;6.78;;;2.58;;
35959;SDS011;22043;50.970;7.192;2022-08-25T04:58:34;7.18;;;3.20;;
35959;SDS011;22043;50.970;7.192;2022-08-25T05:01:04;6.43;;;2.53;;
35959;SDS011;22043;50.970;7.192;2022-08-25T05:03:32;7.75;;;2.88;;
35959;SDS011;22043;50.970;7.192;2022-08-25T05:05:59;5.95;;;2.65;;
35959;SDS011;22043;50.970;7.192;2022-08-25T05:08:25;5.38;;;2.63;;
35959;SDS011;22043;50.970;7.192;2022-08-25T05:10:50;6.95;;;2.80;;
35959;SDS011;22043;50.970;7.192;2022-08-25T05:15:57;7.18;;;2.85;;
35959;SDS011;22043;50.970;7.192;2022-08-25T05:18:25;5.07;;;2.60;;
35959;SDS011;22043;50.970;7.192;2022-08-25T05:20:53;4.63;;;2.67;;
35959;SDS011;22043;50.970;7.192;2022-08-25T05:23:23;4.90;;;2.83;;
35959;SDS011;22043;50.970;7.192;2022-08-25T05:25:50;6.40;;;2.88;;
35959;SDS011;22043;50.970;7.192;2022-08-25T05:28:17;4.40;;;2.73;;
35959;SDS011;22043;50.970;7.192;2022-08-25T05:30:43;5.22;;;2.97;;
35959;SDS011;22043;50.970;7.192;2022-08-25T05:33:10;7.32;;;3.10;;
35959;SDS011;22043;50.970;7.192;2022-08-25T05:35:36;6.70;;;2.60;;
35959;SDS011;22043;50.970;7.192;2022-08-25T05:38:03;4.50;;;2.75;;
35959;SDS011;22043;50.970;7.192;2022-08-25T05:40:30;5.57;;;3.00;;
35959;SDS011;22043;50.970;7.192;2022-08-25T05:42:56;5.85;;;3.03;;
35959;SDS011;22043;50.970;7.192;2022-08-25T05:45:22;8.13;;;3.25;;
35959;SDS011;22043;50.970;7.192;2022-08-25T05:47:48;5.20;;;2.80;;
35959;SDS011;22043;50.970;7.192;2022-08-25T05:50:14;6.97;;;2.65;;
35959;SDS011;22043;50.970;7.192;2022-08-25T05:52:40;5.38;;;2.95;;
35959;SDS011;22043;50.970;7.192;2022-08-25T05:55:07;6.95;;;2.50;;
35959;SDS011;22043;50.970;7.192;2022-08-25T05:57:33;6.97;;;2.67;;
35959;SDS011;22043;50.970;7.192;2022-08-25T05:59:59;6.45;;;2.92;;
35959;SDS011;22043;50.970;7.192;2022-08-25T06:02:25;6.18;;;3.22;;
35959;SDS011;22043;50.970;7.192;2022-08-25T06:05:11;4.53;;;2.67;;
35959;SDS011;22043;50.970;7.192;2022-08-25T06:07:38;8.98;;;3.00;;
35959;SDS011;22043;50.970;7.192;2022-08-25T06:10:04;4.53;;;2.90;;
35959;SDS011;22043;50.970;7.192;2022-08-25T06:12:31;5.82;;;3.08;;
35959;SDS011;22043;50.970;7.192;2022-08-25T06:14:58;4.77;;;3.07;;
35959;SDS011;22043;50.970;7.192;2022-08-25T06:17:24;4.70;;;2.72;;
35959;SDS011;22043;50.970;7.192;2022-08-25T06:19:49;4.85;;;2.60;;
35959;SDS011;22043;50.970;7.192;2022-08-25T06:22:17;7.03;;;2.95;;
35959;SDS011;22043;50.970;7.192;2022-08-25T06:24:42;6.10;;;3.20;;
35959;SDS011;22043;50.970;7.192;2022-08-25T06:27:08;5.55;;;3.42;;
35959;SDS011;22043;50.970;7.192;2022-08-25T06:29:34;7.05;;;3.97;;
35959;SDS011;22043;50.970;7.192;2022-08-25T06:31:59;7.32;;;3.13;;
35959;SDS011;22043;50.970;7.192;2022-08-25T06:34:25;5.97;;;3.30;;
35959;SDS011;22043;50.970;7.192;2022-08-25T06:36:51;3.80;;;2.78;;
35959;SDS011;22043;50.970;7.192;2022-08-25T06:39:16;4.45;;;2.80;;
35959;SDS011;22043;50.970;7.192;2022-08-25T06:41:42;5.97;;;3.08;;
35959;SDS011;22043;50.970;7.192;2022-08-25T06:44:08;6.13;;;3.50;;
35959;SDS011;22043;50.970;7.192;2022-08-25T06:46:35;5.97;;;3.73;;
35959;SDS011;22043;50.970;7.192;2022-08-25T06:49:00;7.57;;;3.60;;
35959;SDS011;22043;50.970;7.192;2022-08-25T06:51:27;5.82;;;3.72;;
35959;SDS011;22043;50.970;7.192;2022-08-25T06:53:52;6.82;;;3.10;;
35959;SDS011;22043;50.970;7.192;2022-08-25T06:56:19;7.32;;;3.50;;
35959;SDS011;22043;50.970;7.192;2022-08-25T06:58:46;5.53;;;3.30;;
35959;SDS011;22043;50.970;7.192;2022-08-25T07:01:14;8.85;;;3.72;;
35959;SDS011;22043;50.970;7.192;2022-08-25T07:03:46;6.25;;;3.50;;
35959;SDS011;22043;50.970;7.192;2022-08-25T07:06:12;8.52;;;3.70;;
35959;SDS011;22043;50.970;7.192;2022-08-25T07:08:38;7.72;;;3.85;;
35959;SDS011;22043;50.970;7.192;2022-08-25T07:11:10;5.18;;;3.17;;
35959;SDS011;22043;50.970;7.192;2022-08-25T07:13:38;5.57;;;3.63;;
35959;SDS011;22043;50.970;7.192;2022-08-25T07:16:04;6.95;;;3.17;;
35959;SDS011;22043;50.970;7.192;2022-08-25T07:18:31;5.88;;;3.67;;
35959;SDS011;22043;50.970;7.192;2022-08-25T07:20:57;7.25;;;3.55;;
35959;SDS011;22043;50.970;7.192;2022-08-25T07:23:23;12.10;;;3.90;;
35959;SDS011;22043;50.970;7.192;2022-08-25T07:25:50;6.10;;;3.88;;
35959;SDS011;22043;50.970;7.192;2022-08-25T07:28:17;5.63;;;3.50;;
35959;SDS011;22043;50.970;7.192;2022-08-25T07:30:43;5.90;;;3.28;;
35959;SDS011;22043;50.970;7.192;2022-08-25T07:33:09;6.28;;;3.30;;
35959;SDS011;22043;50.970;7.192;2022-08-25T07:35:36;5.03;;;3.10;;
35959;SDS011;22043;50.970;7.192;2022-08-25T07:38:04;6.70;;;3.92;;
35959;SDS011;22043;50.970;7.192;2022-08-25T07:42:59;5.45;;;3.10;;
35959;SDS011;22043;50.970;7.192;2022-08-25T07:45:29;5.32;;;2.53;;
35959;SDS011;22043;50.970;7.192;2022-08-25T07:47:58;7.35;;;3.50;;
35959;SDS011;22043;50.970;7.192;2022-08-25T07:50:25;4.55;;;2.97;;
35959;SDS011;22043;50.970;7.192;2022-08-25T07:52:51;4.88;;;3.08;;
35959;SDS011;22043;50.970;7.192;2022-08-25T07:55:18;6.25;;;3.20;;
35959;SDS011;22043;50.970;7.192;2022-08-25T07:57:44;4.45;;;3.17;;
35959;SDS011;22043;50.970;7.192;2022-08-25T08:00:12;6.90;;;3.30;;
35959;SDS011;22043;50.970;7.192;2022-08-25T08:02:39;7.40;;;2.80;;
35959;SDS011;22043;50.970;7.192;2022-08-25T08:05:05;6.30;;;3.15;;
35959;SDS011;22043;50.970;7.192;2022-08-25T08:07:31;5.03;;;3.05;;
35959;SDS011;22043;50.970;7.192;2022-08-25T08:09:57;6.18;;;2.75;;
35959;SDS011;22043;50.970;7.192;2022-08-25T08:12:23;6.20;;;3.08;;
35959;SDS011;22043;50.970;7.192;2022-08-25T08:14:49;7.75;;;3.05;;
35959;SDS011;22043;50.970;7.192;2022-08-25T08:17:16;5.03;;;2.92;;
35959;SDS011;22043;50.970;7.192;2022-08-25T08:19:42;6.82;;;3.30;;
35959;SDS011;22043;50.970;7.192;2022-08-25T08:22:08;4.03;;;2.47;;
35959;SDS011;22043;50.970;7.192;2022-08-25T08:24:39;5.72;;;2.50;;
35959;SDS011;22043;50.970;7.192;2022-08-25T08:27:06;4.28;;;2.75;;
35959;SDS011;22043;50.970;7.192;2022-08-25T08:29:33;4.45;;;2.80;;
35959;SDS011;22043;50.970;7.192;2022-08-25T08:32:00;4.20;;;2.80;;
35959;SDS011;22043;50.970;7.192;2022-08-25T08:34:27;4.45;;;2.53;;
35959;SDS011;22043;50.970;7.192;2022-08-25T08:36:54;16.50;;;3.60;;
35959;SDS011;22043;50.970;7.192;2022-08-25T08:39:20;17.55;;;4.72;;
35959;SDS011;22043;50.970;7.192;2022-08-25T08:50:22;4.35;;;2.92;;
35959;SDS011;22043;50.970;7.192;2022-08-25T08:56:10;7.10;;;3.38;;
35959;SDS011;22043;50.970;7.192;2022-08-25T08:58:44;6.18;;;3.30;;
35959;SDS011;22043;50.970;7.192;2022-08-25T09:01:25;5.47;;;2.75;;
35959;SDS011;22043;50.970;7.192;2022-08-25T09:04:04;5.95;;;3.00;;
35959;SDS011;22043;50.970;7.192;2022-08-25T09:06:39;4.97;;;2.92;;
35959;SDS011;22043;50.970;7.192;2022-08-25T09:09:08;5.20;;;3.00;;
35959;SDS011;22043;50.970;7.192;2022-08-25T09:14:31;6.25;;;2.67;;
35959;SDS011;22043;50.970;7.192;2022-08-25T09:17:01;4.90;;;2.83;;
35959;SDS011;22043;50.970;7.192;2022-08-25T09:22:23;5.20;;;2.80;;
35959;SDS011;22043;50.970;7.192;2022-08-25T09:30:20;4.60;;;2.80;;
35959;SDS011;22043;50.970;7.192;2022-08-25T09:32:50;4.82;;;2.97;;
35959;SDS011;22043;50.970;7.192;2022-08-25T09:35:26;5.45;;;3.10;;
35959;SDS011;22043;50.970;7.192;2022-08-25T09:40:31;4.10;;;2.50;;
35959;SDS011;22043;50.970;7.192;2022-08-25T09:43:00;11.13;;;2.95;;
35959;SDS011;22043;50.970;7.192;2022-08-25T09:45:39;4.22;;;2.60;;
35959;SDS011;22043;50.970;7.192;2022-08-25T09:48:21;4.82;;;3.00;;
35959;SDS011;22043;50.970;7.192;2022-08-25T09:50:50;4.47;;;2.72;;
35959;SDS011;22043;50.970;7.192;2022-08-25T09:53:18;6.35;;;3.13;;
35959;SDS011;22043;50.970;7.192;2022-08-25T09:55:45;4.10;;;2.60;;
35959;SDS011;22043;50.970;7.192;2022-08-25T09:58:17;4.75;;;2.90;;
35959;SDS011;22043;50.970;7.192;2022-08-25T10:00:58;4.30;;;2.75;;
35959;SDS011;22043;50.970;7.192;2022-08-25T10:03:26;4.90;;;2.90;;
35959;SDS011;22043;50.970;7.192;2022-08-25T10:11:01;4.40;;;2.92;;
35959;SDS011;22043;50.970;7.192;2022-08-25T10:13:45;5.65;;;2.80;;
35959;SDS011;22043;50.970;7.192;2022-08-25T10:16:22;5.15;;;2.88;;
35959;SDS011;22043;50.970;7.192;2022-08-25T10:21:32;4.68;;;2.85;;
35959;SDS011;22043;50.970;7.192;2022-08-25T10:23:59;6.53;;;3.00;;
35959;SDS011;22043;50.970;7.192;2022-08-25T10:31:52;5.55;;;3.85;;
35959;SDS011;22043;50.970;7.192;2022-08-25T10:37:17;7.05;;;4.15;;
35959;SDS011;22043;50.970;7.192;2022-08-25T10:45:34;8.33;;;3.30;;
35959;SDS011;22043;50.970;7.192;2022-08-25T10:48:27;4.00;;;2.72;;
35959;SDS011;22043;50.970;7.192;2022-08-25T10:54:01;8.77;;;3.28;;
35959;SDS011;22043;50.970;7.192;2022-08-25T11:08:09;4.97;;;2.90;;
35959;SDS011;22043;50.970;7.192;2022-08-25T11:13:59;5.85;;;3.08;;
35959;SDS011;22043;50.970;7.192;2022-08-25T11:16:36;5.70;;;3.30;;
35959;SDS011;22043;50.970;7.192;2022-08-25T11:19:08;4.20;;;2.53;;
35959;SDS011;22043;50.970;7.192;2022-08-25T11:21:52;3.53;;;2.40;;
35959;SDS011;22043;50.970;7.192;2022-08-25T11:30:16;4.60;;;2.60;;
35959;SDS011;22043;50.970;7.192;2022-08-25T11:32:44;3.95;;;2.33;;
35959;SDS011;22043;50.970;7.192;2022-08-25T11:35:13;3.97;;;2.50;;
35959;SDS011;22043;50.970;7.192;2022-08-25T11:37:44;4.47;;;2.53;;
35959;SDS011;22043;50.970;7.192;2022-08-25T11:45:57;4.85;;;2.90;;
35959;SDS011;22043;50.970;7.192;2022-08-25T11:48:34;5.63;;;2.80;;
35959;SDS011;22043;50.970;7.192;2022-08-25T11:51:31;4.47;;;2.58;;
35959;SDS011;22043;50.970;7.192;2022-08-25T12:11:14;6.45;;;3.40;;
35959;SDS011;22043;50.970;7.192;2022-08-25T12:21:57;3.28;;;2.35;;
35959;SDS011;22043;50.970;7.192;2022-08-25T12:27:59;4.28;;;2.38;;
35959;SDS011;22043;50.970;7.192;2022-08-25T12:38:13;3.67;;;2.20;;
35959;SDS011;22043;50.970;7.192;2022-08-25T12:45:52;3.65;;;2.10;;
35959;SDS011;22043;50.970;7.192;2022-08-25T12:53:53;3.30;;;2.10;;
35959;SDS011;22043;50.970;7.192;2022-08-25T12:56:26;6.05;;;2.65;;
35959;SDS011;22043;50.970;7.192;2022-08-25T13:06:57;3.58;;;2.30;;
35959;SDS011;22043;50.970;7.192;2022-08-25T13:12:25;3.90;;;2.05;;
35959;SDS011;22043;50.970;7.192;2022-08-25T13:14:59;6.75;;;2.50;;
35959;SDS011;22043;50.970;7.192;2022-08-25T13:17:33;4.50;;;2.20;;
35959;SDS011;22043;50.970;7.192;2022-08-25T13:20:12;5.32;;;2.40;;
35959;SDS011;22043;50.970;7.192;2022-08-25T13:22:49;3.97;;;2.63;;
35959;SDS011;22043;50.970;7.192;2022-08-25T13:25:18;3.55;;;2.28;;
35959;SDS011;22043;50.970;7.192;2022-08-25T13:27:50;5.15;;;2.30;;
35959;SDS011;22043;50.970;7.192;2022-08-25T13:30:22;3.85;;;2.22;;
35959;SDS011;22043;50.970;7.192;2022-08-25T13:32:50;6.18;;;2.60;;
35959;SDS011;22043;50.970;7.192;2022-08-25T13:35:23;3.20;;;1.70;;
35959;SDS011;22043;50.970;7.192;2022-08-25T13:37:51;4.40;;;2.42;;
35959;SDS011;22043;50.970;7.192;2022-08-25T13:43:04;3.55;;;2.00;;
35959;SDS011;22043;50.970;7.192;2022-08-25T13:45:40;3.97;;;2.30;;
35959;SDS011;22043;50.970;7.192;2022-08-25T13:50:38;4.25;;;2.03;;
35959;SDS011;22043;50.970;7.192;2022-08-25T13:53:10;4.45;;;2.08;;
35959;SDS011;22043;50.970;7.192;2022-08-25T13:55:52;3.65;;;1.88;;
35959;SDS011;22043;50.970;7.192;2022-08-25T13:58:23;3.22;;;1.95;;
35959;SDS011;22043;50.970;7.192;2022-08-25T14:03:39;4.75;;;2.10;;
35959;SDS011;22043;50.970;7.192;2022-08-25T14:06:19;6.03;;;2.50;;
35959;SDS011;22043;50.970;7.192;2022-08-25T14:13:59;5.55;;;2.83;;
35959;SDS011;22043;50.970;7.192;2022-08-25T14:16:44;6.88;;;2.55;;
35959;SDS011;22043;50.970;7.192;2022-08-25T14:19:13;4.82;;;2.33;;
35959;SDS011;22043;50.970;7.192;2022-08-25T14:21:40;4.88;;;2.97;;
35959;SDS011;22043;50.970;7.192;2022-08-25T14:24:06;40.40;;;5.00;;
35959;SDS011;22043;50.970;7.192;2022-08-25T14:26:32;4.18;;;2.70;;
35959;SDS011;22043;50.970;7.192;2022-08-25T14:28:58;6.25;;;2.40;;
35959;SDS011;22043;50.970;7.192;2022-08-25T14:31:25;11.52;;;3.75;;
35959;SDS011;22043;50.970;7.192;2022-08-25T14:34:04;13.25;;;2.97;;
35959;SDS011;22043;50.970;7.192;2022-08-25T14:36:37;14.10;;;2.60;;
35959;SDS011;22043;50.970;7.192;2022-08-25T14:39:03;13.63;;;3.10;;
35959;SDS011;22043;50.970;7.192;2022-08-25T14:41:30;4.53;;;2.30;;
35959;SDS011;22043;50.970;7.192;2022-08-25T14:43:58;27.70;;;4.32;;
35959;SDS011;22043;50.970;7.192;2022-08-25T14:46:26;10.88;;;2.75;;
35959;SDS011;22043;50.970;7.192;2022-08-25T14:48:53;10.35;;;3.22;;
35959;SDS011;22043;50.970;7.192;2022-08-25T14:51:22;14.07;;;2.97;;
35959;SDS011;22043;50.970;7.192;2022-08-25T14:53:49;8.10;;;2.38;;
35959;SDS011;22043;50.970;7.192;2022-08-25T14:56:17;5.47;;;2.47;;
35959;SDS011;22043;50.970;7.192;2022-08-25T14:58:42;5.13;;;2.60;;
35959;SDS011;22043;50.970;7.192;2022-08-25T15:01:10;8.18;;;2.90;;
35959;SDS011;22043;50.970;7.192;2022-08-25T15:03:39;4.30;;;2.53;;
35959;SDS011;22043;50.970;7.192;2022-08-25T15:06:07;3.85;;;2.30;;
35959;SDS011;22043;50.970;7.192;2022-08-25T15:08:36;6.22;;;2.53;;
35959;SDS011;22043;50.970;7.192;2022-08-25T15:11:20;15.55;;;2.97;;
35959;SDS011;22043;50.970;7.192;2022-08-25T15:13:46;16.13;;;3.35;;
35959;SDS011;22043;50.970;7.192;2022-08-25T15:16:13;9.77;;;3.28;;
35959;SDS011;22043;50.970;7.192;2022-08-25T15:18:44;10.57;;;2.92;;
35959;SDS011;22043;50.970;7.192;2022-08-25T15:21:10;6.72;;;2.65;;
35959;SDS011;22043;50.970;7.192;2022-08-25T15:23:36;11.25;;;2.17;;
35959;SDS011;22043;50.970;7.192;2022-08-25T15:26:02;7.70;;;2.42;;
35959;SDS011;22043;50.970;7.192;2022-08-25T15:28:28;7.32;;;2.58;;
35959;SDS011;22043;50.970;7.192;2022-08-25T15:30:54;4.38;;;2.25;;
35959;SDS011;22043;50.970;7.192;2022-08-25T15:33:19;8.23;;;2.60;;
35959;SDS011;22043;50.970;7.192;2022-08-25T15:35:46;7.88;;;3.35;;
35959;SDS011;22043;50.970;7.192;2022-08-25T15:38:12;10.55;;;3.40;;
35959;SDS011;22043;50.970;7.192;2022-08-25T15:40:38;8.88;;;2.90;;
35959;SDS011;22043;50.970;7.192;2022-08-25T15:43:04;5.75;;;2.42;;
35959;SDS011;22043;50.970;7.192;2022-08-25T15:45:31;6.82;;;2.60;;
35959;SDS011;22043;50.970;7.192;2022-08-25T15:47:57;5.38;;;2.50;;
35959;SDS011;22043;50.970;7.192;2022-08-25T15:50:22;6.50;;;2.78;;
35959;SDS011;22043;50.970;7.192;2022-08-25T15:52:48;6.53;;;3.00;;
35959;SDS011;22043;50.970;7.192;2022-08-25T15:55:15;8.05;;;2.70;;
35959;SDS011;22043;50.970;7.192;2022-08-25T15:57:42;4.75;;;2.53;;
35959;SDS011;22043;50.970;7.192;2022-08-25T16:00:08;6.05;;;2.30;;
35959;SDS011;22043;50.970;7.192;2022-08-25T16:02:36;4.75;;;2.60;;
35959;SDS011;22043;50.970;7.192;2022-08-25T16:05:04;4.35;;;2.40;;
35959;SDS011;22043;50.970;7.192;2022-08-25T16:07:30;4.40;;;2.65;;
35959;SDS011;22043;50.970;7.192;2022-08-25T16:09:56;5.57;;;2.78;;
35959;SDS011;22043;50.970;7.192;2022-08-25T16:12:23;4.63;;;2.50;;
35959;SDS011;22043;50.970;7.192;2022-08-25T16:14:50;4.93;;;2.30;;
35959;SDS011;22043;50.970;7.192;2022-08-25T16:17:19;4.28;;;2.47;;
35959;SDS011;22043;50.970;7.192;2022-08-25T16:19:46;4.25;;;2.35;;
35959;SDS011;22043;50.970;7.192;2022-08-25T16:22:12;5.80;;;2.90;;
35959;SDS011;22043;50.970;7.192;2022-08-25T16:24:39;4.90;;;2.92;;
35959;SDS011;22043;50.970;7.192;2022-08-25T16:27:06;4.72;;;2.80;;
35959;SDS011;22043;50.970;7.192;2022-08-25T16:29:35;4.90;;;2.85;;
35959;SDS011;22043;50.970;7.192;2022-08-25T16:32:02;4.38;;;2.28;;
35959;SDS011;22043;50.970;7.192;2022-08-25T16:34:29;5.32;;;2.97;;
35959;SDS011;22043;50.970;7.192;2022-08-25T16:36:56;4.60;;;3.23;;
35959;SDS011;22043;50.970;7.192;2022-08-25T16:39:22;6.40;;;2.97;;
35959;SDS011;22043;50.970;7.192;2022-08-25T16:41:48;4.30;;;2.70;;
35959;SDS011;22043;50.970;7.192;2022-08-25T16:44:16;5.65;;;2.58;;
35959;SDS011;22043;50.970;7.192;2022-08-25T16:46:42;6.53;;;2.60;;
35959;SDS011;22043;50.970;7.192;2022-08-25T16:49:09;5.43;;;2.55;;
35959;SDS011;22043;50.970;7.192;2022-08-25T16:51:36;4.67;;;2.47;;
35959;SDS011;22043;50.970;7.192;2022-08-25T16:54:03;5.38;;;2.50;;
35959;SDS011;22043;50.970;7.192;2022-08-25T16:56:49;5.22;;;2.97;;
35959;SDS011;22043;50.970;7.192;2022-08-25T16:59:14;4.60;;;2.60;;
35959;SDS011;22043;50.970;7.192;2022-08-25T17:01:41;4.72;;;2.67;;
35959;SDS011;22043;50.970;7.192;2022-08-25T17:04:08;3.60;;;2.47;;
35959;SDS011;22043;50.970;7.192;2022-08-25T17:06:35;4.28;;;2.70;;
35959;SDS011;22043;50.970;7.192;2022-08-25T17:09:03;6.40;;;2.95;;
35959;SDS011;22043;50.970;7.192;2022-08-25T17:11:30;5.43;;;2.50;;
35959;SDS011;22043;50.970;7.192;2022-08-25T17:14:04;5.43;;;2.70;;
35959;SDS011;22043;50.970;7.192;2022-08-25T17:16:31;5.20;;;2.70;;
35959;SDS011;22043;50.970;7.192;2022-08-25T17:18:58;4.47;;;3.03;;
35959;SDS011;22043;50.970;7.192;2022-08-25T17:21:26;5.00;;;2.70;;
35959;SDS011;22043;50.970;7.192;2022-08-25T17:23:55;5.38;;;2.70;;
35959;SDS011;22043;50.970;7.192;2022-08-25T17:26:22;4.53;;;2.45;;
35959;SDS011;22043;50.970;7.192;2022-08-25T17:28:48;4.30;;;2.40;;
35959;SDS011;22043;50.970;7.192;2022-08-25T17:31:14;4.28;;;2.63;;
35959;SDS011;22043;50.970;7.192;2022-08-25T17:33:40;5.55;;;2.63;;
35959;SDS011;22043;50.970;7.192;2022-08-25T17:36:07;5.15;;;3.05;;